X  Sluiten METAR luchtvaart weer gegevens      EHRD Rotterdam The Hague Airport
Temperatuur
5°C Temperatuur
0°C Dauwpunt
70% Vochtigheid



Wind
8 KM/U
5 MPH
2 M/S
4 KTS



60°
ONO
Huidig weer

Wat bewolking Wat bewolking
Luchtdruk 1038.91 (hPa) - 30.68 (inHg)
Zicht 6.2 (mijl) - 10 (km)
Vliegveld
Vliegveld code EHRD

Locatie : Rotterdam The Hague Airport
Afstand: 14 (km)

Metar:
EHRD 071425Z AUTO 06004KT 030V110 9999 FEW020 05/00 Q1039 NOSIG

Tijd: 07-02-2023 15:25 CET